Time;durP1;ratioP1;P1;durP2;ratioP2;P2;SDS_P1;SDS_P2;PMS_P1;PMS_P2;Temp;Humidity;BMP_temperature;BMP_pressure;BME280_temperature;BME280_humidity;BME280_pressure;Samples;Min_cycle;Max_cycle;Signal;HPM_P1;HPM_P2
2022/04/21 00:00:09;;;;;;;4.60;2.42;;;4.00;99.90;;;;;;5114647;28;20381;-74
2022/04/21 00:02:35;;;;;;;5.00;3.20;;;3.80;99.90;;;;;;5116561;28;20024;-74
2022/04/21 00:05:02;;;;;;;6.40;3.40;;;3.70;99.90;;;;;;5113526;28;20030;-74
2022/04/21 00:07:28;;;;;;;4.25;3.33;;;3.70;99.90;;;;;;5113840;28;20262;-74
2022/04/21 00:09:54;;;;;;;2.85;2.50;;;3.60;99.90;;;;;;5113396;28;20274;-74
2022/04/21 00:12:19;;;;;;;5.18;2.80;;;3.60;99.90;;;;;;5113994;28;20027;-74
2022/04/21 00:14:45;;;;;;;3.80;2.80;;;3.50;99.90;;;;;;5115211;28;20028;-74
2022/04/21 00:17:11;;;;;;;5.82;3.55;;;3.50;99.90;;;;;;5112918;28;20402;-74
2022/04/21 00:19:38;;;;;;;4.28;3.03;;;3.60;99.90;;;;;;5115154;28;20031;-74
2022/04/21 00:24:49;;;;;;;5.05;3.03;;;3.60;99.90;;;;;;5113492;28;20031;-74
2022/04/21 00:27:15;;;;;;;7.00;4.38;;;3.60;99.90;;;;;;5112827;28;20024;-74
2022/04/21 00:29:40;;;;;;;4.13;2.92;;;3.50;99.90;;;;;;5112124;28;20148;-73
2022/04/21 00:32:06;;;;;;;5.32;3.17;;;3.50;99.90;;;;;;5113207;28;20492;-74
2022/04/21 00:34:33;;;;;;;3.83;2.95;;;3.40;99.90;;;;;;5113907;28;20047;-74
2022/04/21 00:36:59;;;;;;;6.38;3.72;;;3.30;99.90;;;;;;5115362;28;20034;-74
2022/04/21 00:39:25;;;;;;;6.10;3.95;;;3.20;99.90;;;;;;5113532;28;20023;-74
2022/04/21 00:42:10;;;;;;;6.85;3.83;;;3.20;99.90;;;;;;5112773;28;20487;-74
2022/04/21 00:44:36;;;;;;;5.13;3.30;;;3.30;99.90;;;;;;5112714;28;20058;-74
2022/04/21 00:47:03;;;;;;;4.28;3.22;;;3.20;99.90;;;;;;5112255;28;20057;-73
2022/04/21 00:49:31;;;;;;;4.25;3.22;;;3.10;99.90;;;;;;5111563;28;20139;-75
2022/04/21 00:52:00;;;;;;;7.82;4.07;;;3.00;99.90;;;;;;5112663;28;20420;-74
2022/04/21 00:54:30;;;;;;;6.57;2.83;;;3.00;99.90;;;;;;5113309;28;20027;-74
2022/04/21 00:56:56;;;;;;;5.55;2.85;;;3.00;99.90;;;;;;5113467;28;20277;-73
2022/04/21 00:59:24;;;;;;;5.07;3.30;;;2.90;99.90;;;;;;5112348;28;20019;-74
2022/04/21 01:04:35;;;;;;;4.05;3.17;;;2.90;99.90;;;;;;5112232;28;20042;-74
2022/04/21 01:07:01;;;;;;;5.60;3.30;;;2.90;99.90;;;;;;5112398;28;20480;-74
2022/04/21 01:09:27;;;;;;;3.55;3.25;;;2.90;99.90;;;;;;5112617;28;20026;-74
2022/04/21 01:11:53;;;;;;;6.50;3.50;;;2.80;99.90;;;;;;5113191;28;20027;-74
2022/04/21 01:14:20;;;;;;;5.18;3.40;;;2.80;99.90;;;;;;5110886;28;20134;-74
2022/04/21 01:16:46;;;;;;;3.38;2.80;;;2.70;99.90;;;;;;5112385;28;20361;-74
2022/04/21 01:19:12;;;;;;;4.30;3.17;;;2.70;99.90;;;;;;5112752;28;20039;-74
2022/04/21 01:21:38;;;;;;;3.70;3.10;;;2.60;99.90;;;;;;5112605;28;20491;-74
2022/04/21 01:24:04;;;;;;;4.60;3.13;;;2.60;99.90;;;;;;5112380;28;20084;-74
2022/04/21 01:26:35;;;;;;;9.40;3.50;;;2.60;99.90;;;;;;5112446;28;20076;-74
2022/04/21 01:29:03;;;;;;;9.13;3.60;;;2.70;99.90;;;;;;5111276;27;20072;-74
2022/04/21 01:31:29;;;;;;;7.50;3.75;;;2.70;99.90;;;;;;5112833;28;20020;-74
2022/04/21 01:33:55;;;;;;;4.47;3.60;;;2.70;99.90;;;;;;5112221;28;20384;-74
2022/04/21 01:36:21;;;;;;;4.85;2.97;;;2.70;99.90;;;;;;5111727;28;20019;-74
2022/04/21 01:41:31;;;;;;;5.03;3.45;;;2.70;99.90;;;;;;5113900;28;20031;-74
2022/04/21 01:43:57;;;;;;;5.82;3.58;;;2.70;99.90;;;;;;5112762;28;20380;-74
2022/04/21 01:46:23;;;;;;;6.95;3.70;;;2.70;99.90;;;;;;5110929;28;20055;-74
2022/04/21 01:48:48;;;;;;;6.18;3.55;;;2.70;99.90;;;;;;5113264;28;20042;-74
2022/04/21 01:51:14;;;;;;;7.32;3.55;;;2.70;99.90;;;;;;5110302;28;20025;-74
2022/04/21 01:53:40;;;;;;;6.43;3.38;;;2.60;99.90;;;;;;5112264;28;20039;-74
2022/04/21 01:56:05;;;;;;;5.60;3.42;;;2.60;99.90;;;;;;5112371;28;20076;-74
2022/04/21 01:58:31;;;;;;;7.32;3.72;;;2.60;99.90;;;;;;5112975;28;20053;-74
2022/04/21 02:00:57;;;;;;;5.45;3.70;;;2.60;99.90;;;;;;5112134;28;20106;-74
2022/04/21 02:03:23;;;;;;;6.22;3.85;;;2.70;99.90;;;;;;5111769;28;20030;-74
2022/04/21 02:05:48;;;;;;;6.10;3.10;;;2.70;99.90;;;;;;5111596;28;20023;-74
2022/04/21 02:08:15;;;;;;;5.90;3.17;;;2.70;99.90;;;;;;5113306;28;20082;-74
2022/04/21 02:10:41;;;;;;;7.32;3.58;;;2.60;99.90;;;;;;5111408;28;20041;-74
2022/04/21 02:13:07;;;;;;;5.50;3.08;;;2.60;99.90;;;;;;5112268;28;20439;-74
2022/04/21 02:15:33;;;;;;;7.03;4.13;;;2.50;99.90;;;;;;5112526;28;20024;-73
2022/04/21 02:18:03;;;;;;;4.95;3.03;;;2.50;99.90;;;;;;5112298;28;20023;-75
2022/04/21 02:20:28;;;;;;;6.53;3.38;;;2.40;99.90;;;;;;5112444;28;20023;-74
2022/04/21 02:22:54;;;;;;;5.57;3.58;;;2.30;99.90;;;;;;5111486;28;20032;-74
2022/04/21 02:25:20;;;;;;;4.13;3.22;;;2.30;99.90;;;;;;5111411;28;20024;-74
2022/04/21 02:27:47;;;;;;;5.55;3.70;;;2.30;99.90;;;;;;5109395;28;20039;-74
2022/04/21 02:30:15;;;;;;;5.20;3.80;;;2.30;99.90;;;;;;5113818;28;20020;-74
2022/04/21 02:32:41;;;;;;;5.00;3.90;;;2.30;99.90;;;;;;5112281;28;20031;-73
2022/04/21 02:35:09;;;;;;;5.35;3.90;;;2.30;99.90;;;;;;5111668;28;20391;-74
2022/04/21 02:37:36;;;;;;;5.07;3.45;;;2.20;99.90;;;;;;5113406;28;20027;-74
2022/04/21 02:40:04;;;;;;;4.80;3.70;;;2.30;99.90;;;;;;5112097;28;20024;-74
2022/04/21 02:42:29;;;;;;;3.42;2.92;;;2.20;99.90;;;;;;5116266;27;20020;-74
2022/04/21 02:44:55;;;;;;;6.47;3.63;;;2.10;99.90;;;;;;5115859;28;20024;-74
2022/04/21 02:47:21;;;;;;;6.10;3.95;;;2.10;99.90;;;;;;5116010;28;20015;-74
2022/04/21 02:49:48;;;;;;;10.32;3.47;;;2.00;99.90;;;;;;5115966;28;20054;-74
2022/04/21 02:52:14;;;;;;;6.35;4.20;;;2.00;99.90;;;;;;5115552;28;20031;-74
2022/04/21 02:57:28;;;;;;;5.35;3.20;;;2.00;99.90;;;;;;5115780;28;20043;-74
2022/04/21 02:59:57;;;;;;;6.30;3.83;;;1.90;99.90;;;;;;5115595;28;20027;-74
2022/04/21 03:02:23;;;;;;;5.35;3.75;;;1.90;99.90;;;;;;5115501;28;20031;-74
2022/04/21 03:04:51;;;;;;;6.88;3.55;;;2.00;99.90;;;;;;5115512;28;20043;-74
2022/04/21 03:07:17;;;;;;;5.30;3.95;;;2.00;99.90;;;;;;5115614;28;20016;-74
2022/04/21 03:09:44;;;;;;;6.57;3.63;;;2.10;99.90;;;;;;5116432;28;20020;-74
2022/04/21 03:12:10;;;;;;;4.25;3.20;;;2.00;99.90;;;;;;5114404;28;20023;-74
2022/04/21 03:14:37;;;;;;;5.53;4.10;;;1.80;99.90;;;;;;5115925;28;20031;-74
2022/04/21 03:17:05;;;;;;;6.72;3.70;;;1.80;99.90;;;;;;5116257;28;20104;-74
2022/04/21 03:19:31;;;;;;;5.25;3.67;;;3.40;99.90;;;;;;5116723;28;20015;-74
2022/04/21 03:24:41;;;;;;;7.22;3.63;;;1.80;99.90;;;;;;5115433;28;20030;-74
2022/04/21 03:27:07;;;;;;;6.63;3.75;;;1.80;99.90;;;;;;5115148;28;20024;-74
2022/04/21 03:29:37;;;;;;;5.68;3.42;;;1.70;99.90;;;;;;5114884;28;20468;-74
2022/04/21 03:32:09;;;;;;;7.45;3.58;;;1.60;99.90;;;;;;5114350;28;20384;-74
2022/04/21 03:34:42;;;;;;;8.35;4.57;;;1.50;99.90;;;;;;5114760;28;20019;-74
2022/04/21 03:37:10;;;;;;;9.23;3.30;;;1.50;99.90;;;;;;5114299;28;20399;-74
2022/04/21 03:39:37;;;;;;;6.15;4.07;;;1.60;99.90;;;;;;5114456;28;20027;-74
2022/04/21 03:42:04;;;;;;;8.32;4.28;;;1.60;99.90;;;;;;5114745;27;20062;-74
2022/04/21 03:44:30;;;;;;;10.75;4.05;;;1.60;99.90;;;;;;5114158;28;20011;-74
2022/04/21 03:46:57;;;;;;;6.32;3.45;;;1.40;99.90;;;;;;5113858;28;20391;-74
2022/04/21 03:49:30;;;;;;;10.68;4.35;;;1.40;99.90;;;;;;5114110;28;20111;-74
2022/04/21 03:51:56;;;;;;;7.13;4.25;;;1.30;99.90;;;;;;5113122;28;20071;-74
2022/04/21 03:54:23;;;;;;;6.82;4.38;;;1.50;99.90;;;;;;5114523;28;20499;-74
2022/04/21 03:56:53;;;;;;;7.80;3.70;;;1.50;99.90;;;;;;5113955;28;20032;-73
2022/04/21 03:59:20;;;;;;;7.18;3.53;;;0.70;99.90;;;;;;5113996;28;20398;-74
2022/04/21 04:01:46;;;;;;;7.05;3.53;;;1.50;99.90;;;;;;5114278;28;20027;-74
2022/04/21 04:04:13;;;;;;;8.55;4.32;;;1.50;99.90;;;;;;5114841;28;20019;-74
2022/04/21 04:12:09;;;;;;;6.10;3.90;;;1.40;99.90;;;;;;5113379;28;20026;-74
2022/04/21 04:14:36;;;;;;;12.95;5.13;;;1.40;99.90;;;;;;5113640;28;20542;-74
2022/04/21 04:17:02;;;;;;;5.32;3.90;;;2.70;99.90;;;;;;5113634;28;20028;-74
2022/04/21 04:19:28;;;;;;;8.27;4.22;;;1.30;99.90;;;;;;5113348;28;20020;-74
2022/04/21 04:21:54;;;;;;;7.28;3.97;;;1.20;99.90;;;;;;5113505;28;20028;-74
2022/04/21 04:24:19;;;;;;;7.03;4.28;;;1.30;99.90;;;;;;5114250;28;20031;-74
2022/04/21 04:26:45;;;;;;;7.00;4.10;;;1.30;99.90;;;;;;5114435;28;20027;-75
2022/04/21 04:29:11;;;;;;;5.22;3.50;;;1.30;99.90;;;;;;5114198;28;20267;-74
2022/04/21 04:31:39;;;;;;;7.30;4.10;;;1.30;99.90;;;;;;5113363;28;20015;-74
2022/04/21 04:34:05;;;;;;;7.95;4.10;;;1.40;99.90;;;;;;5114635;28;20030;-74
2022/04/21 04:36:34;;;;;;;7.22;4.68;;;1.60;99.90;;;;;;5114257;28;20020;-74
2022/04/21 04:39:00;;;;;;;10.02;4.38;;;1.60;99.90;;;;;;5113220;28;20024;-74
2022/04/21 04:44:09;;;;;;;6.50;3.97;;;1.60;99.90;;;;;;5113497;28;20119;-74
2022/04/21 04:46:35;;;;;;;7.70;4.10;;;1.60;99.90;;;;;;5113473;27;20047;-74
2022/04/21 04:49:06;;;;;;;7.43;4.88;;;1.50;99.90;;;;;;5111871;28;20266;-74
2022/04/21 04:51:40;;;;;;;7.00;3.78;;;1.60;99.90;;;;;;5113146;28;20031;-74
2022/04/21 04:54:06;;;;;;;6.07;4.40;;;1.60;99.90;;;;;;5112678;28;20027;-74
2022/04/21 04:56:33;;;;;;;11.93;4.68;;;1.60;99.90;;;;;;5112167;28;20163;-74
2022/04/21 04:58:58;;;;;;;7.10;4.32;;;1.60;99.90;;;;;;5112510;28;20020;-74
2022/04/21 05:01:41;;;;;;;6.63;3.97;;;1.70;99.90;;;;;;5112629;28;20016;-74
2022/04/21 05:04:18;;;;;;;7.65;4.53;;;1.80;99.90;;;;;;5111897;28;20111;-74
2022/04/21 05:06:55;;;;;;;8.43;4.57;;;1.90;99.90;;;;;;5110878;28;20084;-74
2022/04/21 05:09:22;;;;;;;6.28;3.83;;;1.90;99.90;;;;;;5113259;28;20035;-74
2022/04/21 05:11:53;;;;;;;6.38;4.07;;;1.90;99.90;;;;;;5112943;28;20024;-74
2022/04/21 05:14:19;;;;;;;5.93;3.65;;;2.20;99.90;;;;;;5114253;28;20461;-75
2022/04/21 05:16:45;;;;;;;9.25;4.65;;;2.30;99.90;;;;;;5112783;28;20016;-74
2022/04/21 05:19:16;;;;;;;7.20;4.05;;;2.50;99.90;;;;;;5113299;28;20026;-74
2022/04/21 05:21:43;;;;;;;8.40;4.38;;;2.50;99.90;;;;;;5111652;28;20502;-74
2022/04/21 05:24:13;;;;;;;7.55;4.70;;;2.50;99.90;;;;;;5111888;28;20020;-74
2022/04/21 05:26:40;;;;;;;8.82;5.30;;;2.60;99.90;;;;;;5112674;28;20051;-74
2022/04/21 05:32:02;;;;;;;7.55;4.97;;;2.80;99.90;;;;;;5113419;28;20076;-74
2022/04/21 05:34:30;;;;;;;8.30;4.32;;;3.10;99.90;;;;;;5113934;28;20023;-74
2022/04/21 05:36:58;;;;;;;6.80;4.82;;;3.20;99.90;;;;;;5112946;28;20020;-74
2022/04/21 05:39:25;;;;;;;12.25;5.78;;;3.40;99.90;;;;;;5111917;28;20065;-74
2022/04/21 05:41:52;;;;;;;9.50;5.50;;;3.70;99.90;;;;;;5110519;28;20290;-74
2022/04/21 05:44:18;;;;;;;7.88;4.53;;;4.10;99.90;;;;;;5111996;28;20034;-74
2022/04/21 05:46:45;;;;;;;9.57;4.60;;;4.30;99.90;;;;;;5115445;28;20376;-74
2022/04/21 05:49:11;;;;;;;9.65;4.45;;;4.50;99.90;;;;;;5110602;28;20465;-74
2022/04/21 05:51:37;;;;;;;8.98;4.72;;;4.80;99.90;;;;;;5111610;28;20015;-74
2022/04/21 05:54:07;;;;;;;5.10;4.05;;;4.90;99.90;;;;;;5110255;28;20110;-74
2022/04/21 05:56:33;;;;;;;5.85;4.20;;;5.20;99.90;;;;;;5111648;28;20471;-74
2022/04/21 05:58:59;;;;;;;11.27;4.40;;;5.40;99.90;;;;;;5112737;28;20024;-74
2022/04/21 06:01:26;;;;;;;6.32;4.20;;;5.50;99.90;;;;;;5111993;28;20018;-74
2022/04/21 06:03:52;;;;;;;6.40;4.10;;;5.40;99.90;;;;;;5111818;28;20020;-74
2022/04/21 06:06:18;;;;;;;7.78;4.43;;;5.50;99.90;;;;;;5113189;28;20027;-74
2022/04/21 06:08:44;;;;;;;7.40;4.05;;;4.60;99.90;;;;;;5111352;28;20031;-74
2022/04/21 06:11:13;;;;;;;8.00;3.83;;;5.60;99.90;;;;;;5110781;28;20399;-74
2022/04/21 06:13:41;;;;;;;6.45;4.22;;;5.70;99.90;;;;;;5111965;28;20044;-74
2022/04/21 06:16:07;;;;;;;9.18;4.95;;;3.60;99.90;;;;;;5111292;28;20016;-74
2022/04/21 06:18:33;;;;;;;11.50;4.60;;;5.80;99.90;;;;;;5111442;28;20023;-74
2022/04/21 06:21:00;;;;;;;8.20;4.97;;;5.80;99.90;;;;;;5115483;28;20019;-75
2022/04/21 06:23:26;;;;;;;6.47;4.40;;;6.00;99.90;;;;;;5113716;28;20058;-75
2022/04/21 06:25:58;;;;;;;8.70;4.60;;;6.20;99.90;;;;;;5111704;28;20429;-74
2022/04/21 06:28:28;;;;;;;8.93;4.15;;;6.40;99.90;;;;;;5112404;28;20027;-74
2022/04/21 06:30:54;;;;;;;;;;;6.30;99.90;;;;;;5112723;28;20020;-74
2022/04/21 06:33:19;;;;;;;6.18;4.05;;;6.60;99.90;;;;;;5113395;28;19906;-74
2022/04/21 06:35:45;;;;;;;6.32;3.45;;;6.60;99.90;;;;;;5111680;28;20456;-74
2022/04/21 06:38:12;;;;;;;6.45;4.38;;;6.70;99.90;;;;;;5115352;28;20031;-74
2022/04/21 06:40:38;;;;;;;5.22;4.18;;;6.80;99.90;;;;;;5115661;28;20045;-74
2022/04/21 06:48:01;;;;;;;7.68;4.22;;;6.70;99.90;;;;;;5113513;28;20114;-74
2022/04/21 06:48:40;;;;;;;7.03;4.25;;;7.50;99.90;;;;;;5111472;28;20046;-74
2022/04/21 06:51:05;;;;;;;8.63;4.97;;;7.80;99.90;;;;;;5111051;28;20016;-74
2022/04/21 06:53:34;;;;;;;5.97;4.22;;;7.70;99.90;;;;;;5110849;28;20068;-74
2022/04/21 06:56:01;;;;;;;7.30;4.38;;;7.80;99.90;;;;;;5112636;28;20031;-74
2022/04/21 06:58:27;;;;;;;8.95;4.97;;;7.80;99.90;;;;;;5110846;28;20503;-75
2022/04/21 07:00:53;;;;;;;7.18;4.88;;;7.70;99.90;;;;;;5112058;28;20031;-74
2022/04/21 07:03:18;;;;;;;8.60;4.07;;;7.60;99.90;;;;;;5110024;28;20020;-75
2022/04/21 07:05:44;;;;;;;5.65;4.40;;;7.60;99.90;;;;;;5109052;28;20030;-75
2022/04/21 07:08:10;;;;;;;8.18;4.55;;;7.40;99.90;;;;;;5109587;28;20046;-74
2022/04/21 07:10:36;;;;;;;10.55;5.63;;;7.50;99.90;;;;;;5109328;28;20110;-74
2022/04/21 07:13:11;;;;;;;7.03;4.93;;;7.80;99.90;;;;;;5111304;28;20036;-75
2022/04/21 07:15:40;;;;;;;5.97;4.65;;;7.70;99.90;;;;;;5110296;28;20024;-74
2022/04/21 07:18:06;;;;;;;5.60;4.13;;;7.60;99.90;;;;;;5110985;28;20114;-74
2022/04/21 07:20:32;;;;;;;10.05;5.45;;;7.60;99.90;;;;;;5113130;28;20035;-74
2022/04/21 07:22:57;;;;;;;7.75;4.88;;;7.60;99.90;;;;;;5111250;28;20384;-74
2022/04/21 07:25:23;;;;;;;10.18;5.03;;;7.90;99.90;;;;;;5111198;28;20500;-74
2022/04/21 07:27:49;;;;;;;7.90;4.68;;;7.70;99.90;;;;;;5113400;28;20067;-74
2022/04/21 07:30:15;;;;;;;7.55;4.93;;;7.80;99.90;;;;;;5114348;28;20168;-74
2022/04/21 07:32:43;;;;;;;7.55;4.55;;;8.10;99.90;;;;;;5115341;28;20491;-75
2022/04/21 07:35:09;;;;;;;7.82;4.38;;;8.20;99.90;;;;;;5114354;28;20098;-74
2022/04/21 07:37:37;;;;;;;6.70;4.60;;;8.40;99.90;;;;;;5114530;28;20555;-74
2022/04/21 07:40:06;;;;;;;7.22;4.88;;;8.50;99.90;;;;;;5116981;28;20068;-74
2022/04/21 07:42:32;;;;;;;7.40;5.13;;;8.80;99.90;;;;;;5115634;28;20020;-74
2022/04/21 07:45:00;;;;;;;7.75;4.60;;;9.00;99.90;;;;;;5114643;28;20039;-74
2022/04/21 07:47:27;;;;;;;6.90;4.50;;;9.10;99.90;;;;;;5115033;28;20051;-74
2022/04/21 07:49:52;;;;;;;8.48;5.28;;;9.20;99.90;;;;;;5115537;28;20074;-74
2022/04/21 07:55:19;;;;;;;10.30;5.13;;;9.70;99.90;;;;;;5115743;28;20045;-75
2022/04/21 07:57:46;;;;;;;6.68;5.00;;;10.20;99.90;;;;;;5113893;28;20032;-74
2022/04/21 08:00:15;;;;;;;7.28;4.72;;;10.00;96.70;;;;;;5114430;28;20179;-75
2022/04/21 08:02:42;;;;;;;7.93;4.30;;;10.10;98.30;;;;;;5114739;28;20023;-74
2022/04/21 08:05:10;;;;;;;6.63;5.15;;;10.50;97.50;;;;;;5114074;28;20560;-75
2022/04/21 08:07:36;;;;;;;8.40;5.47;;;10.70;93.40;;;;;;5115312;28;20038;-74
2022/04/21 08:10:09;;;;;;;6.75;4.85;;;11.00;90.10;;;;;;5113548;28;20043;-74
2022/04/21 08:12:46;;;;;;;5.07;3.88;;;10.90;91.00;;;;;;5112040;28;20076;-75
2022/04/21 08:15:27;;;;;;;8.50;4.63;;;11.60;84.30;;;;;;5114155;28;20095;-74
2022/04/21 08:17:55;;;;;;;9.00;5.20;;;12.30;82.60;;;;;;5114560;28;20020;-74
2022/04/21 08:20:22;;;;;;;7.38;4.72;;;12.20;79.40;;;;;;5114956;28;20016;-74
2022/04/21 08:22:48;;;;;;;5.38;4.43;;;13.10;76.10;;;;;;5114840;28;20042;-75
2022/04/21 08:33:27;;;;;;;8.20;4.57;;;13.00;75.00;;;;;;5115241;28;20039;-75
2022/04/21 08:35:58;;;;;;;7.07;4.70;;;12.70;72.00;;;;;;5113919;28;20016;-74
2022/04/21 08:38:29;;;;;;;8.50;4.13;;;13.20;72.20;;;;;;5113524;28;20384;-74
2022/04/21 08:40:55;;;;;;;8.77;4.75;;;12.90;72.70;;;;;;5113797;28;20022;-74
2022/04/21 08:43:23;;;;;;;15.02;5.38;;;12.70;72.80;;;;;;5114983;28;20020;-75
2022/04/21 08:45:50;;;;;;;5.85;4.22;;;12.50;71.30;;;;;;5112536;28;20043;-74
2022/04/21 08:48:19;;;;;;;7.40;4.78;;;12.40;72.50;;;;;;5113824;28;20042;-74
2022/04/21 08:50:45;;;;;;;6.38;4.45;;;12.40;70.50;;;;;;5113325;28;20520;-74
2022/04/21 08:53:17;;;;;;;8.73;4.50;;;12.50;70.50;;;;;;5113899;28;20032;-74
2022/04/21 08:55:44;;;;;;;5.63;4.57;;;12.70;70.90;;;;;;5112952;28;20023;-74
2022/04/21 08:58:11;;;;;;;8.27;4.78;;;12.90;71.90;;;;;;5113872;28;20020;-74
2022/04/21 09:00:37;;;;;;;7.60;5.15;;;13.30;67.50;;;;;;5113004;28;20015;-74
2022/04/21 09:03:08;;;;;;;5.25;3.80;;;13.20;69.90;;;;;;5112816;28;20106;-74
2022/04/21 09:05:35;;;;;;;8.57;4.88;;;12.80;69.50;;;;;;5113072;28;20606;-74
2022/04/21 09:08:01;;;;;;;6.88;4.82;;;12.70;72.00;;;;;;5112819;28;20038;-74
2022/04/21 09:10:29;;;;;;;6.43;4.93;;;12.50;69.30;;;;;;5112413;28;20103;-74
2022/04/21 09:13:00;;;;;;;8.50;5.28;;;12.80;69.50;;;;;;5113364;28;20042;-77
2022/04/21 09:15:32;;;;;;;7.28;5.05;;;13.00;68.60;;;;;;5113015;28;20152;-75
2022/04/21 09:18:01;;;;;;;9.77;5.32;;;13.10;67.40;;;;;;5113562;28;20051;-74
2022/04/21 09:20:35;;;;;;;6.77;5.03;;;13.10;67.90;;;;;;5113911;28;20095;-74
2022/04/21 09:23:07;;;;;;;7.30;4.90;;;12.90;68.90;;;;;;5114081;28;20472;-74
2022/04/21 09:25:47;;;;;;;6.07;4.57;;;12.70;69.20;;;;;;5113751;28;20476;-74
2022/04/21 09:28:24;;;;;;;5.97;4.40;;;12.60;68.60;;;;;;5114436;28;20088;-75
2022/04/21 09:30:57;;;;;;;9.43;5.18;;;12.70;69.10;;;;;;5113795;28;20024;-74
2022/04/21 09:33:30;;;;;;;7.35;4.90;;;13.10;67.30;;;;;;5114407;28;20509;-74
2022/04/21 09:35:57;;;;;;;6.68;4.55;;;13.00;69.30;;;;;;5113602;28;20511;-74
2022/04/21 09:38:23;;;;;;;5.63;4.57;;;12.80;69.40;;;;;;5113585;28;20028;-75
2022/04/21 09:40:49;;;;;;;6.50;5.03;;;12.90;67.30;;;;;;5113351;28;20031;-74
2022/04/21 09:43:27;;;;;;;7.35;4.55;;;12.80;66.20;;;;;;5113442;28;20051;-74
2022/04/21 09:46:08;;;;;;;10.52;5.75;;;12.90;66.30;;;;;;5114721;28;20020;-74
2022/04/21 09:48:33;;;;;;;6.65;4.88;;;12.70;65.90;;;;;;5114580;28;20167;-75
2022/04/21 09:51:16;;;;;;;8.55;5.18;;;12.60;65.90;;;;;;5113657;28;20170;-74
2022/04/21 09:53:55;;;;;;;8.68;4.97;;;12.90;64.80;;;;;;5113409;28;20020;-74
2022/04/21 09:56:40;;;;;;;6.68;5.18;;;13.30;63.10;;;;;;5112863;28;20060;-75
2022/04/21 09:59:09;;;;;;;10.18;5.32;;;13.30;63.30;;;;;;5113208;28;20035;-75
2022/04/21 10:01:38;;;;;;;8.95;5.20;;;13.30;65.00;;;;;;5113588;28;20484;-75
2022/04/21 10:04:13;;;;;;;9.18;5.70;;;13.40;66.10;;;;;;5113258;28;20106;-75
2022/04/21 10:06:45;;;;;;;9.43;5.15;;;13.30;69.30;;;;;;5115804;28;20039;-75
2022/04/21 10:09:12;;;;;;;11.20;4.55;;;13.50;67.40;;;;;;5114311;28;20123;-74
2022/04/21 10:11:42;;;;;;;8.98;5.32;;;13.50;68.80;;;;;;5112901;28;20020;-75
2022/04/21 10:14:12;;;;;;;8.15;4.97;;;13.50;65.60;;;;;;5112269;28;20460;-74
2022/04/21 10:16:42;;;;;;;12.88;6.03;;;13.50;65.90;;;;;;5112138;28;20023;-75
2022/04/21 10:19:09;;;;;;;9.57;4.97;;;13.50;63.90;;;;;;5113713;28;20389;-75
2022/04/21 10:21:42;;;;;;;6.95;5.28;;;13.50;64.30;;;;;;5114879;28;20020;-74
2022/04/21 10:24:08;;;;;;;9.65;5.78;;;13.80;63.50;;;;;;5110177;28;20465;-74
2022/04/21 10:26:41;;;;;;;7.95;4.85;;;14.30;62.70;;;;;;5111172;28;20044;-74
2022/04/21 10:29:18;;;;;;;8.80;4.60;;;14.60;63.80;;;;;;5110951;28;20065;-74
2022/04/21 10:32:03;;;;;;;9.80;5.20;;;14.40;65.80;;;;;;5112913;28;20050;-74
2022/04/21 10:34:38;;;;;;;7.32;4.55;;;14.40;62.90;;;;;;5111637;28;20016;-75
2022/04/21 10:37:19;;;;;;;6.10;4.05;;;14.60;63.30;;;;;;5113459;28;20082;-74
2022/04/21 10:40:04;;;;;;;7.88;4.53;;;14.60;62.60;;;;;;5112627;28;20146;-74
2022/04/21 10:42:50;;;;;;;7.13;4.53;;;14.50;62.60;;;;;;5113482;28;20445;-75
2022/04/21 10:45:28;;;;;;;6.97;4.85;;;14.50;62.20;;;;;;5114465;28;20055;-74
2022/04/21 10:48:08;;;;;;;8.93;4.07;;;14.90;62.10;;;;;;5115197;28;20043;-74
2022/04/21 10:50:36;;;;;;;9.90;4.38;;;15.00;59.60;;;;;;5120623;28;20118;-75
2022/04/21 10:58:36;;;;;;;7.93;5.13;;;16.00;58.30;;;;;;5117187;28;20069;-74
2022/04/21 11:01:28;;;;;;;7.35;4.38;;;15.70;55.80;;;;;;5113223;28;20107;-75
2022/04/21 11:04:10;;;;;;;7.47;4.80;;;15.90;55.80;;;;;;5115910;28;20031;-74
2022/04/21 11:06:54;;;;;;;7.93;5.43;;;16.40;54.60;;;;;;5116054;28;20020;-74
2022/04/21 11:09:40;;;;;;;7.15;4.80;;;16.10;54.30;;;;;;5114263;28;20543;-75
2022/04/21 11:12:07;;;;;;;6.03;4.30;;;15.80;54.50;;;;;;5116340;28;20054;-74
2022/04/21 11:14:36;;;;;;;6.95;4.53;;;15.60;58.70;;;;;;5115684;27;20040;-74
2022/04/21 11:17:04;;;;;;;9.93;5.13;;;16.00;55.90;;;;;;5115907;28;20020;-75
2022/04/21 11:19:30;;;;;;;6.70;4.40;;;16.10;55.60;;;;;;5116892;28;20016;-74
2022/04/21 11:22:01;;;;;;;5.95;4.40;;;16.50;54.30;;;;;;5112540;28;20395;-74
2022/04/21 11:24:27;;;;;;;11.68;6.45;;;16.80;53.40;;;;;;5117398;28;20055;-74
2022/04/21 11:26:57;;;;;;;9.65;5.90;;;17.10;54.50;;;;;;5117594;28;20023;-74
2022/04/21 11:29:23;;;;;;;10.45;4.80;;;16.90;53.40;;;;;;5118482;28;20119;-74
2022/04/21 11:31:54;;;;;;;7.82;5.03;;;16.70;53.80;;;;;;5118596;27;20051;-74
2022/04/21 11:34:25;;;;;;;8.15;5.10;;;17.10;53.60;;;;;;5116057;28;20031;-74
2022/04/21 11:37:01;;;;;;;14.98;5.10;;;17.10;54.90;;;;;;5117017;28;20028;-74
2022/04/21 11:39:27;;;;;;;9.57;5.97;;;17.00;52.60;;;;;;5117034;28;20016;-74
2022/04/21 11:41:53;;;;;;;8.40;5.00;;;17.80;53.10;;;;;;5119754;28;20024;-74
2022/04/21 11:44:22;;;;;;;9.35;5.63;;;18.20;50.60;;;;;;5117814;28;20031;-74
2022/04/21 11:46:49;;;;;;;10.30;4.88;;;18.10;50.80;;;;;;5116827;28;20020;-74
2022/04/21 11:49:15;;;;;;;9.48;5.82;;;18.50;50.40;;;;;;5121455;28;20028;-74
2022/04/21 11:51:42;;;;;;;10.73;5.18;;;18.30;50.00;;;;;;5118692;28;20023;-74
2022/04/21 11:54:10;;;;;;;7.60;5.03;;;18.50;50.70;;;;;;5116280;28;20110;-74
2022/04/21 11:56:36;;;;;;;10.10;4.80;;;18.40;50.60;;;;;;5115192;28;20015;-75
2022/04/21 11:59:09;;;;;;;8.48;5.28;;;18.50;51.80;;;;;;5114939;28;20288;-74
2022/04/21 12:07:09;;;;;;;7.45;4.72;;;19.70;49.30;;;;;;5112516;28;20116;-76
2022/04/21 12:09:40;;;;;;;6.50;4.55;;;19.80;50.60;;;;;;5113951;28;20035;-74
2022/04/21 12:12:08;;;;;;;13.30;6.72;;;19.90;49.80;;;;;;5118891;28;20522;-74
2022/04/21 12:14:36;;;;;;;7.97;5.38;;;20.40;48.20;;;;;;5115195;28;20048;-74
2022/04/21 12:17:03;;;;;;;9.52;5.28;;;19.70;50.40;;;;;;5112458;28;20020;-74
2022/04/21 12:19:38;;;;;;;17.85;5.18;;;20.80;47.90;;;;;;5112776;28;20088;-74
2022/04/21 12:22:12;;;;;;;9.55;5.32;;;20.40;49.50;;;;;;5112947;28;20027;-74
2022/04/21 12:24:44;;;;;;;8.20;5.18;;;19.90;48.10;;;;;;5113416;28;20059;-75
2022/04/21 12:27:15;;;;;;;9.75;5.78;;;19.50;49.60;;;;;;5113135;28;20039;-74
2022/04/21 12:29:53;;;;;;;11.13;5.40;;;19.50;49.60;;;;;;5113923;28;20047;-74
2022/04/21 12:32:19;;;;;;;9.27;5.15;;;19.30;50.00;;;;;;5114764;28;20042;-74
2022/04/21 12:34:45;;;;;;;10.02;5.75;;;19.90;51.60;;;;;;5113976;28;20390;-74
2022/04/21 12:37:10;;;;;;;7.25;5.00;;;19.20;49.40;;;;;;5113171;28;20038;-74
2022/04/21 12:39:37;;;;;;;9.45;5.72;;;19.80;49.80;;;;;;5111756;28;20494;-75
2022/04/21 12:42:03;;;;;;;10.15;5.63;;;20.40;48.20;;;;;;5113214;28;20020;-75
2022/04/21 12:44:29;;;;;;;9.50;5.43;;;20.70;47.30;;;;;;5111430;28;20046;-74
2022/04/21 12:47:27;;;;;;;9.68;5.53;;;21.20;46.40;;;;;;5112667;27;20023;-76
2022/04/21 12:49:54;;;;;;;6.55;4.60;;;21.10;49.00;;;;;;5065924;28;20127;-75
2022/04/21 12:52:32;;;;;;;8.98;5.05;;;21.20;48.00;;;;;;5111848;28;20098;-75
2022/04/21 12:54:58;;;;;;;9.02;4.88;;;20.60;47.40;;;;;;5113555;28;20041;-74
2022/04/21 12:57:24;;;;;;;17.58;7.00;;;20.00;48.70;;;;;;5111654;28;20182;-74
2022/04/21 12:59:50;;;;;;;8.73;5.53;;;19.50;49.10;;;;;;5113013;28;20182;-75
2022/04/21 13:02:18;;;;;;;7.65;5.40;;;20.60;48.70;;;;;;5111208;28;20049;-76
2022/04/21 13:04:45;;;;;;;7.63;5.85;;;20.70;47.80;;;;;;5111182;28;20047;-75
2022/04/21 13:07:11;;;;;;;7.18;5.43;;;21.80;47.70;;;;;;5111296;28;20042;-74
2022/04/21 13:09:37;;;;;;;9.02;5.40;;;20.60;47.70;;;;;;5114522;28;20027;-74
2022/04/21 13:12:03;;;;;;;8.57;4.47;;;20.80;48.70;;;;;;5114103;28;20019;-74
2022/04/21 13:14:29;;;;;;;9.82;5.35;;;21.10;49.20;;;;;;5111722;28;20130;-75
2022/04/21 13:16:55;;;;;;;9.95;5.95;;;21.10;49.30;;;;;;5111051;28;20165;-75
2022/04/21 13:19:21;;;;;;;10.23;5.95;;;21.70;47.80;;;;;;5110938;28;20096;-75
2022/04/21 13:21:52;;;;;;;8.48;5.60;;;21.10;48.40;;;;;;5109312;28;20020;-75
2022/04/21 13:24:38;;;;;;;10.02;6.00;;;20.90;50.90;;;;;;5108776;28;20415;-75
2022/04/21 13:27:04;;;;;;;11.23;5.82;;;21.50;48.10;;;;;;5109974;28;20074;-76
2022/04/21 13:29:30;;;;;;;9.93;5.00;;;22.10;47.60;;;;;;5109428;28;20101;-75
2022/04/21 13:34:42;;;;;;;10.70;5.47;;;21.70;49.60;;;;;;5113385;28;20097;-74
2022/04/21 13:37:07;;;;;;;12.35;5.80;;;20.60;48.20;;;;;;5112930;28;20023;-74
2022/04/21 13:39:35;;;;;;;10.50;6.63;;;20.10;50.80;;;;;;5113966;28;20531;-74
2022/04/21 13:42:04;;;;;;;7.97;5.30;;;20.20;49.60;;;;;;5110965;28;20392;-75
2022/04/21 13:44:30;;;;;;;9.10;4.95;;;20.40;49.30;;;;;;5110428;28;20034;-75
2022/04/21 13:46:57;;;;;;;10.55;5.28;;;20.30;50.40;;;;;;5112582;28;20295;-74
2022/04/21 13:49:23;;;;;;;7.55;5.45;;;21.00;49.10;;;;;;5110600;28;20433;-75
2022/04/21 13:51:49;;;;;;;7.25;5.30;;;21.10;51.70;;;;;;5110284;28;20024;-75